Whiskey Flats, Nevada
Current Conditions -  °F | °C
As of 9:52 AM on Sunday 21 Dec 2014 (Local Time) from KBAN Reporting Station
Clear Clear  
Wind Chill: 50°   Ceiling: Unl
Heat Index: 50°   Visibility: NA
Dew Point: 30°   Wind: 8mph
Humidity: 46%   Direction: 190°S
Pressure: 30.27"   Gusts: NA
Location:  38.6331°N, 118.656°W
Report Text: KBAN 211752Z AUTO 19007KT CLR 10/M01 A3027 RMK AO2 SLP211 T01001011 10117 20028 53010 $
Loading
Personal Weather Stations






























Interactive Weather Map New forecast layout! Learn more

10-Day Weather Forecast

Advertisements
Track Severe Weather on mobile